Time;durP1;ratioP1;P1;durP2;ratioP2;P2;SDS_P1;SDS_P2;PMS_P1;PMS_P2;Temp;Humidity;BMP_temperature;BMP_pressure;BME280_temperature;BME280_humidity;BME280_pressure;Samples;Min_cycle;Max_cycle;Signal;HPM_P1;HPM_P2
2023/07/22 00:01:14;;;;;;;18.42;11.77;;;;;;;14.19;91.06;101384.03;5032920;28;20033;-79
2023/07/22 00:03:39;;;;;;;16.70;12.13;;;;;;;14.27;90.90;101397.31;5032878;28;20044;-79
2023/07/22 00:06:06;;;;;;;17.80;11.60;;;;;;;14.26;91.34;101400.03;5032518;28;20065;-78
2023/07/22 00:08:35;;;;;;;18.70;12.82;;;;;;;14.24;91.59;101394.91;5032694;28;20060;-79
2023/07/22 00:11:01;;;;;;;21.17;12.98;;;;;;;14.08;91.82;101378.75;5032724;28;20088;-79
2023/07/22 00:13:26;;;;;;;17.63;12.30;;;;;;;14.20;91.78;101403.88;5032795;28;20033;-79
2023/07/22 00:15:53;;;;;;;17.02;12.27;;;;;;;14.19;91.78;101404.81;5032885;28;20022;-79
2023/07/22 00:18:18;;;;;;;16.42;12.15;;;;;;;14.10;91.41;101381.25;5014977;28;20028;-79
2023/07/22 00:20:43;;;;;;;19.10;13.40;;;;;;;14.22;91.82;101391.59;5032530;28;20049;-78
2023/07/22 00:23:10;;;;;;;19.98;12.70;;;;;;;14.16;92.62;101383.41;5032715;28;20028;-78
2023/07/22 00:25:35;;;;;;;21.02;13.60;;;;;;;14.25;91.80;101388.78;5036724;28;20449;-78
2023/07/22 00:28:00;;;;;;;17.25;11.63;;;;;;;14.29;92.19;101389.41;5039316;28;20092;-78
2023/07/22 00:30:28;;;;;;;17.85;12.75;;;;;;;14.04;92.80;101352.16;5039152;28;20080;-78
2023/07/22 00:32:53;;;;;;;19.73;13.45;;;;;;;14.29;94.73;101398.03;5045157;23;20064;-77
2023/07/22 00:35:22;;;;;;;18.98;13.98;;;;;;;13.43;98.25;101265.50;4998715;28;20085;-77
2023/07/22 00:37:56;;;;;;;22.05;14.68;;;;;;;14.21;100.00;101395.16;4999598;28;20096;-76
2023/07/22 00:40:22;;;;;;;21.77;14.63;;;;;;;13.44;100.00;101294.88;4999584;28;20061;-78
2023/07/22 00:43:00;;;;;;;21.13;14.65;;;;;;;14.13;100.00;101407.81;4999420;28;20036;-78
2023/07/22 00:45:35;;;;;;;22.58;15.70;;;;;;;12.94;100.00;101216.06;4999556;28;20072;-78
2023/07/22 00:48:19;;;;;;;22.55;15.50;;;;;;;13.55;100.00;101310.53;4999479;28;20053;-78
2023/07/22 00:50:51;;;;;;;22.25;15.18;;;;;;;13.17;100.00;101256.88;5014370;28;20033;-78
2023/07/22 00:53:18;;;;;;;21.65;15.88;;;;;;;13.28;100.00;101263.97;4999730;28;20022;-78
2023/07/22 00:55:46;;;;;;;22.42;14.45;;;;;;;12.94;100.00;101210.91;4999561;28;20165;-78
2023/07/22 00:58:12;;;;;;;24.90;15.15;;;;;;;13.92;100.00;101375.53;4999424;28;20105;-78
2023/07/22 01:00:37;;;;;;;19.38;14.23;;;;;;;13.76;100.00;101366.22;4999405;28;20026;-78
2023/07/22 01:03:03;;;;;;;21.63;14.80;;;;;;;13.78;100.00;101371.28;5014368;28;20081;-78
2023/07/22 01:05:30;;;;;;;24.25;16.05;;;;;;;13.82;100.00;101380.53;4999270;28;20436;-80
2023/07/22 01:07:56;;;;;;;22.70;15.35;;;;;;;13.62;100.00;101342.94;5014411;28;20498;-78
2023/07/22 01:10:22;;;;;;;21.90;15.85;;;;;;;13.82;100.00;101377.09;4999390;28;20026;-80
2023/07/22 01:12:47;;;;;;;20.67;14.75;;;;;;;13.82;100.00;101382.28;4981871;28;20049;-79
2023/07/22 01:15:13;;;;;;;21.17;14.75;;;;;;;13.82;100.00;101383.13;4999462;28;20030;-78
2023/07/22 01:17:39;;;;;;;25.75;15.15;;;;;;;13.82;100.00;101379.69;4999292;28;20061;-78
2023/07/22 01:20:06;;;;;;;22.20;15.20;;;;;;;13.78;100.00;101377.31;4999552;28;20035;-78
2023/07/22 01:22:33;;;;;;;22.33;14.95;;;;;;;13.74;100.00;101370.66;4999071;28;20034;-78
2023/07/22 01:24:59;;;;;;;22.58;15.20;;;;;;;13.80;100.00;101366.81;4999195;28;20034;-78
2023/07/22 01:27:25;;;;;;;22.48;15.15;;;;;;;13.46;100.00;101312.00;4999357;28;20386;-79
2023/07/22 01:29:51;;;;;;;23.55;14.77;;;;;;;13.55;100.00;101338.25;4999109;28;20022;-78
2023/07/22 01:32:17;;;;;;;22.80;15.93;;;;;;;13.59;100.00;101348.34;4999332;28;20114;-78
2023/07/22 01:34:43;;;;;;;22.65;15.63;;;;;;;13.51;100.00;101344.59;4996996;28;20551;-80
2023/07/22 01:37:09;;;;;;;24.52;16.90;;;;;;;13.68;100.00;101365.91;4996264;28;20117;-78
2023/07/22 01:39:35;;;;;;;22.40;15.27;;;;;;;13.60;100.00;101354.38;4996245;28;20054;-79
2023/07/22 01:42:01;;;;;;;26.92;16.02;;;;;;;13.48;100.00;101330.91;4996026;28;20039;-78
2023/07/22 01:44:26;;;;;;;23.25;15.93;;;;;;;13.62;100.00;101357.69;4995979;28;20031;-79
2023/07/22 01:46:52;;;;;;;23.27;15.90;;;;;;;13.42;100.00;101339.09;4995996;28;20026;-78
2023/07/22 01:49:17;;;;;;;21.40;15.27;;;;;;;13.50;100.00;101356.75;4995964;28;20077;-79
2023/07/22 01:51:42;;;;;;;21.17;15.23;;;;;;;13.31;100.00;101326.00;4995593;28;20172;-81
2023/07/22 01:54:09;;;;;;;21.75;14.23;;;;;;;13.48;100.00;101356.84;4995751;28;20045;-79
2023/07/22 01:56:35;;;;;;;22.73;14.80;;;;;;;13.50;100.00;101361.94;4978275;28;20506;-79
2023/07/22 01:59:01;;;;;;;21.17;14.32;;;;;;;13.40;100.00;101340.97;4995804;28;20077;-79
2023/07/22 02:01:28;;;;;;;20.67;14.75;;;;;;;13.49;100.00;101357.69;4995765;28;20031;-79
2023/07/22 02:03:55;;;;;;;22.25;13.98;;;;;;;13.26;100.00;101315.09;5009958;28;20430;-79
2023/07/22 02:06:21;;;;;;;22.25;14.45;;;;;;;13.45;100.00;101354.44;5010422;28;20030;-78
2023/07/22 02:08:46;;;;;;;18.08;13.70;;;;;;;13.29;100.00;101329.63;4995265;28;20033;-78
2023/07/22 02:11:12;;;;;;;21.45;14.02;;;;;;;13.44;100.00;101357.13;4995619;28;20041;-79
2023/07/22 02:13:37;;;;;;;19.95;13.80;;;;;;;13.38;100.00;101357.56;4995432;28;20065;-79
2023/07/22 02:16:03;;;;;;;20.65;14.57;;;;;;;13.36;100.00;101349.84;4995564;28;20172;-79
2023/07/22 02:18:29;;;;;;;20.40;14.20;;;;;;;13.35;100.00;101353.38;4995395;28;20080;-79
2023/07/22 02:20:56;;;;;;;20.42;14.77;;;;;;;13.28;100.00;101340.94;4995199;28;20108;-80
2023/07/22 02:23:22;;;;;;;18.40;12.82;;;;;;;13.33;100.00;101344.06;4995187;28;20022;-80
2023/07/22 02:25:51;;;;;;;20.95;13.73;;;;;;;13.27;100.00;101332.31;4995525;28;20378;-79
2023/07/22 02:28:21;;;;;;;20.70;13.15;;;;;;;13.28;100.00;101339.19;4995376;28;20030;-79
2023/07/22 02:30:52;;;;;;;21.15;14.02;;;;;;;13.25;100.00;101335.94;4995123;28;20140;-79
2023/07/22 02:33:17;;;;;;;21.65;14.25;;;;;;;13.24;100.00;101339.47;4995014;28;20026;-79
2023/07/22 02:35:43;;;;;;;20.50;13.73;;;;;;;13.04;100.00;101314.81;5010373;28;20051;-79
2023/07/22 02:38:08;;;;;;;20.17;14.27;;;;;;;13.11;100.00;101335.06;4994813;28;20038;-78
2023/07/22 02:40:37;;;;;;;22.60;13.90;;;;;;;12.86;100.00;101306.47;4995034;28;20030;-79
2023/07/22 02:43:03;;;;;;;21.25;14.05;;;;;;;12.96;100.00;101324.84;4994736;28;20026;-79
2023/07/22 02:45:28;;;;;;;20.13;14.25;;;;;;;12.82;100.00;101321.41;4977450;28;20026;-79
2023/07/22 02:47:54;;;;;;;21.83;14.63;;;;;;;12.76;100.00;101314.00;5099871;23;20050;-78
2023/07/22 02:50:19;;;;;;;22.92;14.57;;;;;;;12.81;100.00;101331.88;5014026;28;20029;-79
2023/07/22 02:52:45;;;;;;;21.88;14.80;;;;;;;12.74;100.00;101336.59;5013959;28;20025;-79
2023/07/22 02:55:18;;;;;;;22.15;15.57;;;;;;;12.50;100.00;101309.69;5014130;28;20026;-79
2023/07/22 02:57:46;;;;;;;22.33;14.75;;;;;;;12.45;100.00;101312.53;5014092;28;20118;-79
2023/07/22 03:00:12;;;;;;;22.45;14.77;;;;;;;12.53;100.00;101335.38;5014103;28;20474;-79
2023/07/22 03:02:38;;;;;;;22.73;14.98;;;;;;;12.49;100.00;101344.28;5014216;28;20032;-79
2023/07/22 03:05:07;;;;;;;23.80;15.18;;;;;;;12.45;100.00;101338.44;5013853;28;20052;-79
2023/07/22 03:07:33;;;;;;;22.60;15.00;;;;;;;12.37;100.00;101335.50;5013999;28;20018;-79
2023/07/22 03:09:59;;;;;;;21.20;15.40;;;;;;;12.29;100.00;101336.00;5014129;28;20101;-79
2023/07/22 03:12:24;;;;;;;23.08;14.73;;;;;;;12.24;100.00;101332.84;5013972;28;20160;-79
2023/07/22 03:14:49;;;;;;;21.60;15.10;;;;;;;12.05;100.00;101312.44;5014021;28;20065;-79
2023/07/22 03:17:16;;;;;;;23.02;15.27;;;;;;;12.22;100.00;101346.81;5013967;28;20057;-79
2023/07/22 03:19:42;;;;;;;25.65;16.40;;;;;;;12.19;100.00;101350.44;5013268;28;20096;-79
2023/07/22 03:22:07;;;;;;;22.38;15.50;;;;;;;11.97;100.00;101313.81;5013928;28;20104;-79
2023/07/22 03:24:32;;;;;;;25.13;16.20;;;;;;;12.19;100.00;101352.16;5013448;28;20156;-79
2023/07/22 03:26:58;;;;;;;26.13;15.18;;;;;;;12.16;100.00;101358.38;5013566;28;20034;-79
2023/07/22 03:29:24;;;;;;;24.50;16.45;;;;;;;12.16;100.00;101353.19;4996232;28;20031;-78
2023/07/22 03:31:50;;;;;;;23.80;16.27;;;;;;;12.11;100.00;101350.06;4996026;28;20022;-79
2023/07/22 03:34:15;;;;;;;22.58;15.80;;;;;;;12.16;100.00;101352.38;5013252;28;20389;-79
2023/07/22 03:36:40;;;;;;;22.45;15.65;;;;;;;12.17;100.00;101354.84;5013476;28;20454;-80
2023/07/22 03:39:06;;;;;;;25.55;16.50;;;;;;;11.93;100.00;101315.78;4995171;28;20088;-79
2023/07/22 03:41:31;;;;;;;25.92;15.98;;;;;;;12.13;100.00;101350.81;5013412;28;20026;-80
2023/07/22 03:44:03;;;;;;;25.73;15.77;;;;;;;11.73;100.00;101287.66;5020348;23;20141;-80
2023/07/22 03:46:28;;;;;;;21.92;14.77;;;;;;;11.44;100.00;101253.19;5013336;28;20382;-79
2023/07/22 03:48:54;;;;;;;23.27;15.30;;;;;;;12.10;100.00;101351.00;5013166;28;20022;-79
2023/07/22 03:51:19;;;;;;;24.52;15.93;;;;;;;12.10;100.00;101352.75;5013502;28;20037;-80
2023/07/22 03:53:44;;;;;;;23.38;15.45;;;;;;;12.09;100.00;101351.91;5013113;28;20465;-79
2023/07/22 03:56:10;;;;;;;22.30;15.20;;;;;;;12.06;100.00;101350.34;5012979;28;20080;-79
2023/07/22 03:58:35;;;;;;;22.00;15.25;;;;;;;12.06;100.00;101354.69;4995509;28;20051;-79
2023/07/22 04:01:00;;;;;;;25.38;15.00;;;;;;;11.97;100.00;101343.13;5028003;28;20069;-79
2023/07/22 04:03:25;;;;;;;23.17;15.40;;;;;;;11.89;100.00;101336.75;5012811;28;20026;-79
2023/07/22 04:05:57;;;;;;;23.02;14.82;;;;;;;12.05;100.00;101356.44;5013084;28;20041;-79
2023/07/22 04:08:22;;;;;;;23.15;15.27;;;;;;;11.77;100.00;101305.47;5013019;28;20381;-80
2023/07/22 04:10:55;;;;;;;22.55;15.70;;;;;;;12.09;100.00;101354.47;5012823;28;20052;-80
2023/07/22 04:13:21;;;;;;;23.15;14.93;;;;;;;12.15;100.00;101356.72;5012869;28;20466;-79
2023/07/22 04:15:49;;;;;;;22.35;16.02;;;;;;;12.17;100.00;101354.84;5012963;28;20029;-80
2023/07/22 04:18:16;;;;;;;21.85;14.98;;;;;;;12.11;100.00;101341.47;5012806;28;20033;-80
2023/07/22 04:20:41;;;;;;;23.48;15.40;;;;;;;12.21;100.00;101352.94;5012704;28;20025;-80
2023/07/22 04:23:07;;;;;;;23.63;15.48;;;;;;;12.23;100.00;101359.66;5013032;28;20032;-80
2023/07/22 04:25:32;;;;;;;22.63;14.57;;;;;;;12.29;100.00;101358.44;4994984;28;20093;-80
2023/07/22 04:27:57;;;;;;;21.85;14.93;;;;;;;12.29;100.00;101359.31;5012899;28;20026;-80
2023/07/22 04:30:24;;;;;;;23.55;14.52;;;;;;;12.34;100.00;101357.25;5012975;28;20030;-80
2023/07/22 04:32:50;;;;;;;23.15;15.07;;;;;;;12.30;100.00;101348.00;5013020;28;20032;-79
2023/07/22 04:35:19;;;;;;;23.33;15.40;;;;;;;12.39;100.00;101361.28;5013016;28;20105;-80
2023/07/22 04:37:44;;;;;;;22.02;14.88;;;;;;;12.36;100.00;101357.16;5013116;28;20389;-80
2023/07/22 04:40:18;;;;;;;22.90;15.23;;;;;;;12.46;100.00;101362.59;5012732;28;20026;-79
2023/07/22 04:42:49;;;;;;;21.25;14.75;;;;;;;11.62;100.00;101223.63;4993676;23;20944;-79
2023/07/22 04:45:14;;;;;;;;;;;;;;;12.64;100.00;101366.63;4971852;28;20126;-79
2023/07/22 04:47:41;;;;;;;22.92;15.27;;;;;;;12.43;100.00;101319.59;4973645;28;19952;-79
2023/07/22 04:50:09;;;;;;;20.90;14.90;;;;;;;12.86;100.00;101363.50;4973450;28;20023;-79
2023/07/22 04:52:36;;;;;;;21.20;14.18;;;;;;;12.79;100.00;101320.78;4973964;28;20029;-79
2023/07/22 04:55:08;;;;;;;22.50;14.90;;;;;;;13.21;100.00;101363.84;4973560;28;20031;-80
2023/07/22 04:57:38;;;;;;;24.23;15.30;;;;;;;13.36;100.00;101364.59;4973347;28;20490;-79
2023/07/22 05:00:04;;;;;;;21.65;14.80;;;;;;;13.45;100.00;101370.00;4973481;28;20027;-80
2023/07/22 05:02:30;;;;;;;19.60;13.73;;;;;;;13.36;100.00;101346.44;4973425;28;20118;-79
2023/07/22 05:04:56;;;;;;;21.25;15.23;;;;;;;13.45;100.00;101344.06;4973702;28;20031;-79
2023/07/22 05:07:22;;;;;;;23.73;15.07;;;;;;;13.40;100.00;101327.16;4973635;28;20471;-79
2023/07/22 05:09:48;;;;;;;21.50;14.73;;;;;;;13.47;100.00;101334.44;5004535;28;20033;-79
2023/07/22 05:12:13;;;;;;;22.60;14.50;;;;;;;13.71;100.00;101370.88;5006100;28;20038;-79
2023/07/22 05:14:38;;;;;;;21.35;14.70;;;;;;;13.75;100.00;101367.13;5008498;28;20023;-79
2023/07/22 05:17:04;;;;;;;21.30;15.23;;;;;;;13.69;100.00;101361.53;4977002;28;20050;-78
2023/07/22 05:19:29;;;;;;;22.13;15.55;;;;;;;13.75;100.00;101374.91;4976971;28;20474;-79
2023/07/22 05:21:54;;;;;;;21.05;14.93;;;;;;;13.69;100.00;101344.19;4977170;28;20033;-79
2023/07/22 05:24:21;;;;;;;20.38;14.02;;;;;;;13.88;100.00;101369.72;4977127;28;20037;-80
2023/07/22 05:26:46;;;;;;;22.05;14.23;;;;;;;13.84;100.00;101333.69;4975197;28;20471;-79
2023/07/22 05:29:12;;;;;;;23.23;15.07;;;;;;;14.12;100.00;101351.63;4976857;28;20031;-79
2023/07/22 05:31:37;;;;;;;22.85;15.48;;;;;;;14.69;100.00;101371.06;4976930;28;20106;-81
2023/07/22 05:34:03;;;;;;;21.05;13.63;;;;;;;14.93;97.42;101336.28;5069434;23;20030;-81
2023/07/22 05:36:30;;;;;;;19.90;14.35;;;;;;;14.89;97.52;101332.25;5014431;28;20085;-80
2023/07/22 05:41:26;;;;;;;20.60;13.75;;;;;;;16.21;91.46;101377.84;4955637;28;20047;-78
2023/07/22 05:43:52;;;;;;;18.67;13.50;;;;;;;17.12;89.59;101384.53;4957487;28;20044;-79
2023/07/22 05:46:17;;;;;;;18.83;12.95;;;;;;;17.89;83.15;101352.88;4955476;29;20069;-78
2023/07/22 05:48:42;;;;;;;18.42;12.60;;;;;;;18.39;78.24;101374.66;4957196;28;20027;-79
2023/07/22 05:51:09;;;;;;;19.05;12.68;;;;;;;17.84;79.64;101383.78;4957265;28;20110;-78
2023/07/22 05:53:34;;;;;;;17.95;12.02;;;;;;;17.26;83.54;101383.41;4957148;28;20031;-78
2023/07/22 05:55:59;;;;;;;21.88;12.85;;;;;;;17.93;81.66;101376.00;4956973;28;20166;-78
2023/07/22 05:58:25;;;;;;;17.00;12.35;;;;;;;19.15;75.30;101373.09;4957137;28;20391;-79
2023/07/22 06:00:51;;;;;;;16.27;11.98;;;;;;;20.39;70.74;101372.03;4956963;28;20483;-79
2023/07/22 06:03:17;;;;;;;16.95;11.90;;;;;;;21.35;67.52;101377.59;4956894;28;20031;-79
2023/07/22 06:05:43;;;;;;;15.88;11.32;;;;;;;22.00;63.52;101365.63;4956892;28;20372;-79
2023/07/22 06:08:08;;;;;;;16.27;11.18;;;;;;;22.37;60.40;101369.75;4956759;28;20023;-79
2023/07/22 06:10:33;;;;;;;16.92;11.73;;;;;;;21.66;61.56;101344.59;4956745;28;20033;-80
2023/07/22 06:12:59;;;;;;;16.45;11.27;;;;;;;21.99;60.90;101369.25;4956796;28;20043;-80
2023/07/22 06:15:24;;;;;;;15.25;11.48;;;;;;;22.18;59.79;101314.75;4956910;28;20365;-79
2023/07/22 06:17:50;;;;;;;17.27;11.73;;;;;;;22.63;59.20;101356.47;4956597;29;20126;-78
2023/07/22 06:20:15;;;;;;;16.77;11.40;;;;;;;22.45;58.26;101276.84;4956536;28;20039;-78
2023/07/22 06:22:40;;;;;;;13.00;8.55;;;;;;;23.64;56.45;101341.16;4956358;28;20098;-75
2023/07/22 06:25:06;;;;;;;15.27;10.68;;;;;;;23.57;55.65;101323.50;4956357;28;20023;-80
2023/07/22 06:27:34;;;;;;;14.95;9.88;;;;;;;24.41;55.16;101341.34;4956297;29;20121;-80
2023/07/22 06:29:59;;;;;;;12.73;9.30;;;;;;;24.25;54.63;101360.69;4954004;29;20042;-78
2023/07/22 06:32:24;;;;;;;13.48;8.90;;;;;;;23.23;56.86;101360.66;4956573;29;20031;-79
2023/07/22 06:34:50;;;;;;;14.73;10.23;;;;;;;22.20;59.87;101353.06;4956343;28;20043;-80
2023/07/22 06:37:15;;;;;;;18.33;11.63;;;;;;;21.50;62.26;101348.94;4956163;28;20031;-80
2023/07/22 06:39:41;;;;;;;13.02;9.90;;;;;;;20.90;65.62;101320.72;4955995;29;20051;-79
2023/07/22 06:42:06;;;;;;;18.55;11.00;;;;;;;20.63;66.83;101347.88;4954913;29;20475;-77
2023/07/22 06:44:32;;;;;;;18.35;11.40;;;;;;;19.91;68.63;101293.63;4956113;28;20097;-79
2023/07/22 06:46:57;;;;;;;29.05;10.50;;;;;;;20.28;68.55;101325.88;4956277;28;20019;-78
2023/07/22 06:49:22;;;;;;;17.73;11.38;;;;;;;20.95;66.99;101341.31;4956275;28;20471;-78
2023/07/22 06:51:53;;;;;;;15.93;10.98;;;;;;;21.53;64.90;101290.81;4955938;28;20493;-79
2023/07/22 06:54:21;;;;;;;16.88;10.68;;;;;;;22.54;59.86;101231.13;4956010;28;20062;-77
2023/07/22 06:57:01;;;;;;;16.55;11.07;;;;;;;24.24;57.75;101281.69;4955973;28;20023;-80
2023/07/22 06:59:27;;;;;;;16.80;10.82;;;;;;;25.30;52.09;101308.09;4955763;28;20027;-78
2023/07/22 07:01:52;;;;;;;15.48;10.25;;;;;;;25.57;49.89;101308.47;4956034;29;20514;-82
2023/07/22 07:04:18;;;;;;;15.80;10.93;;;;;;;25.03;51.55;101300.75;4955497;28;20028;-74
2023/07/22 07:06:43;;;;;;;16.88;11.38;;;;;;;24.95;51.98;101337.78;4955982;29;20039;-82
2023/07/22 07:09:09;;;;;;;15.63;10.40;;;;;;;24.25;54.27;101339.56;4955970;28;20034;-78
2023/07/22 07:11:34;;;;;;;14.32;10.40;;;;;;;23.14;56.31;101315.03;4955525;28;20523;-78
2023/07/22 07:14:00;;;;;;;15.50;10.93;;;;;;;22.25;59.88;101297.38;4955676;29;20031;-77
2023/07/22 07:16:27;;;;;;;18.40;11.40;;;;;;;21.61;61.62;101331.09;4965243;28;20042;-74
2023/07/22 07:18:54;;;;;;;17.00;10.68;;;;;;;20.94;64.72;101319.44;4975633;28;20031;-78
2023/07/22 07:21:22;;;;;;;16.70;11.07;;;;;;;20.64;66.98;101336.41;4974949;28;20037;-78
2023/07/22 07:23:48;;;;;;;13.98;10.50;;;;;;;20.28;69.19;101320.63;4974885;28;20030;-76
2023/07/22 07:26:16;;;;;;;19.02;11.95;;;;;;;20.22;69.90;101336.09;4974864;28;20027;-81
2023/07/22 07:28:42;;;;;;;15.23;11.20;;;;;;;20.03;72.16;101342.28;4974569;28;20356;-80
2023/07/22 07:31:07;;;;;;;20.38;11.43;;;;;;;20.00;72.25;101334.72;4974679;28;20042;-81
2023/07/22 07:33:33;;;;;;;17.05;11.43;;;;;;;19.56;73.79;101281.22;5077728;23;20050;-82
2023/07/22 07:35:58;;;;;;;17.80;11.30;;;;;;;19.61;74.12;101297.34;4993154;28;20034;-81
2023/07/22 07:38:24;;;;;;;19.58;13.02;;;;;;;19.60;73.85;101314.88;4994021;28;20021;-82
2023/07/22 07:40:55;;;;;;;14.38;10.32;;;;;;;19.67;74.40;101309.91;4992651;28;20031;-82
2023/07/22 07:43:20;;;;;;;14.85;10.80;;;;;;;19.83;74.09;101325.81;4991821;28;20373;-81
2023/07/22 07:45:46;;;;;;;16.55;11.30;;;;;;;19.75;74.85;101310.81;4993705;28;20029;-83
2023/07/22 07:48:11;;;;;;;20.10;10.88;;;;;;;19.66;74.14;101269.75;4993815;28;20109;-81
2023/07/22 07:50:36;;;;;;;18.13;11.57;;;;;;;19.95;74.44;101292.38;4992094;28;20395;-82
2023/07/22 07:53:02;;;;;;;16.55;11.70;;;;;;;20.08;72.66;101302.53;4992387;28;20537;-87
2023/07/22 07:55:27;;;;;;;17.35;11.80;;;;;;;20.22;71.56;101312.50;4993688;28;20038;-82
2023/07/22 07:57:52;;;;;;;17.20;11.40;;;;;;;20.46;72.52;101312.81;4993379;28;20022;-78
2023/07/22 08:00:20;;;;;;;15.93;10.43;;;;;;;20.88;71.25;101343.69;4993451;28;20041;-86
2023/07/22 08:02:45;;;;;;;18.85;11.35;;;;;;;20.92;69.12;101345.84;4993514;28;20026;-84
2023/07/22 08:05:12;;;;;;;15.05;10.10;;;;;;;21.08;68.85;101341.72;4992051;28;20037;-83
2023/07/22 08:07:37;;;;;;;16.08;10.55;;;;;;;20.64;68.96;101286.53;4993707;28;20429;-83
2023/07/22 08:10:04;;;;;;;18.52;11.27;;;;;;;20.85;69.82;101344.81;4993822;28;20032;-81
2023/07/22 08:12:30;;;;;;;19.77;11.85;;;;;;;20.68;69.42;101318.59;4993360;28;20035;-83
2023/07/22 08:14:56;;;;;;;20.98;12.45;;;;;;;20.65;71.10;101317.09;4993357;28;20031;-82
2023/07/22 08:17:21;;;;;;;15.05;10.43;;;;;;;20.70;70.15;101319.25;4993512;28;20033;-80
2023/07/22 08:19:47;;;;;;;17.42;11.25;;;;;;;20.85;70.35;101346.63;4993385;28;20093;-83
2023/07/22 08:22:12;;;;;;;14.52;9.80;;;;;;;20.79;69.26;101342.78;4993380;28;20498;-80
2023/07/22 08:24:37;;;;;;;15.88;9.73;;;;;;;20.76;68.47;101332.59;4993267;28;20077;-83
2023/07/22 08:27:03;;;;;;;15.15;9.63;;;;;;;20.93;69.05;101351.94;4993510;28;20494;-82
2023/07/22 08:29:29;;;;;;;12.63;9.32;;;;;;;20.88;67.89;101338.44;4995077;28;20512;-76
2023/07/22 08:31:54;;;;;;;13.13;8.82;;;;;;;20.88;69.09;101322.69;5013537;28;20022;-78
2023/07/22 08:34:19;;;;;;;14.43;9.65;;;;;;;21.06;68.59;101351.56;5013108;28;20481;-80
2023/07/22 08:36:45;;;;;;;14.60;8.70;;;;;;;21.24;66.12;101355.00;5012637;28;20486;-84
2023/07/22 08:39:10;;;;;;;13.20;8.63;;;;;;;21.24;67.99;101296.34;5012992;28;20485;-82
2023/07/22 08:41:36;;;;;;;15.07;8.95;;;;;;;21.48;64.21;101297.38;5012861;28;20034;-85
2023/07/22 08:44:04;;;;;;;13.30;8.32;;;;;;;22.07;64.86;101342.19;5012490;28;20033;-83
2023/07/22 08:46:33;;;;;;;14.82;8.55;;;;;;;22.10;63.31;101280.53;5014861;28;20026;-84
2023/07/22 08:49:00;;;;;;;14.55;8.35;;;;;;;22.53;60.42;101298.72;5016748;28;20026;-86
2023/07/22 08:51:29;;;;;;;13.85;7.75;;;;;;;22.88;61.54;101316.03;5016658;28;20462;-84
2023/07/22 08:53:58;;;;;;;11.30;7.13;;;;;;;22.91;60.41;101301.72;4998925;28;20029;-86
2023/07/22 08:56:25;;;;;;;11.68;7.05;;;;;;;22.95;58.08;101336.47;5016514;28;20025;-84
2023/07/22 08:58:52;;;;;;;10.55;6.85;;;;;;;22.97;58.01;101345.00;5016469;28;20054;-86
2023/07/22 09:01:17;;;;;;;11.35;6.97;;;;;;;22.68;59.35;101313.84;5014345;28;20041;-87
2023/07/22 09:03:43;;;;;;;9.77;6.40;;;;;;;22.61;59.92;101314.53;5016346;28;20026;-83
2023/07/22 09:06:10;;;;;;;11.32;6.15;;;;;;;22.57;59.37;101349.22;5016225;28;20025;-83
2023/07/22 09:08:35;;;;;;;10.48;6.03;;;;;;;22.39;59.66;101356.41;5016404;28;20460;-85
2023/07/22 09:11:01;;;;;;;9.77;6.13;;;;;;;22.12;59.15;101329.38;5016339;28;20045;-85
2023/07/22 09:13:27;;;;;;;9.38;5.60;;;;;;;22.20;60.12;101337.28;5016085;28;20022;-84
2023/07/22 09:15:54;;;;;;;9.07;5.65;;;;;;;21.79;58.56;101288.13;5013940;28;20037;-85
2023/07/22 09:18:20;;;;;;;10.38;5.20;;;;;;;21.21;60.02;101208.19;5016150;28;20049;-83
2023/07/22 09:20:46;;;;;;;9.50;5.65;;;;;;;21.86;61.44;101281.28;5015961;28;20030;-83
2023/07/22 09:23:14;;;;;;;8.88;5.28;;;;;;;22.11;60.28;101317.19;5015905;28;20030;-79
2023/07/22 09:25:41;;;;;;;11.02;6.22;;;;;;;22.19;59.79;101316.41;5015585;28;20429;-85
2023/07/22 09:28:07;;;;;;;11.48;6.20;;;;;;;22.16;60.16;101309.66;5016194;28;20030;-79
2023/07/22 09:30:34;;;;;;;11.18;5.88;;;;;;;22.48;60.10;101340.50;5015919;28;20132;-80
2023/07/22 09:33:03;;;;;;;8.80;5.75;;;;;;;22.80;58.80;101336.25;5015839;28;20028;-86
2023/07/22 09:35:57;;;;;;;11.00;6.15;;;;;;;22.92;57.61;101337.63;5015830;28;20474;-84
2023/07/22 09:38:26;;;;;;;10.23;6.05;;;;;;;22.61;58.58;101308.41;4955127;29;20047;-81
2023/07/22 09:40:52;;;;;;;11.15;6.35;;;;;;;22.41;57.76;101338.66;4955172;29;20042;-86
2023/07/22 09:43:17;;;;;;;8.98;5.57;;;;;;;22.45;58.40;101332.94;4955333;29;20035;-78
2023/07/22 09:45:47;;;;;;;11.55;6.28;;;;;;;22.41;59.03;101339.47;4955081;29;20167;-84
2023/07/22 09:48:13;;;;;;;9.52;5.78;;;;;;;22.30;58.58;101314.28;4955098;29;20074;-84
2023/07/22 09:50:38;;;;;;;11.43;6.70;;;;;;;22.45;58.36;101325.03;4955215;29;20090;-78
2023/07/22 09:53:04;;;;;;;11.40;5.50;;;;;;;22.34;58.31;101264.81;4954782;29;20479;-78
2023/07/22 09:55:32;;;;;;;10.50;5.93;;;;;;;22.55;56.72;101288.84;4955034;29;20050;-83
2023/07/22 09:58:03;;;;;;;9.73;5.47;;;;;;;22.92;56.66;101302.56;4954488;28;20503;-84
2023/07/22 10:00:33;;;;;;;;;;;;;;;23.51;56.86;101314.47;4955234;29;20606;-79
2023/07/22 10:03:01;;;;;;;8.25;5.47;;;;;;;22.81;56.16;101201.81;5083877;22;20325;-84
2023/07/22 10:08:19;;;;;;;10.10;5.15;;;;;;;23.22;54.88;101257.06;5015423;28;20117;-82
2023/07/22 10:10:45;;;;;;;10.35;5.25;;;;;;;22.52;55.46;101202.31;5015170;28;20025;-79
2023/07/22 10:13:10;;;;;;;9.35;5.03;;;;;;;22.14;55.97;101234.53;5015065;28;20112;-82
2023/07/22 10:15:39;;;;;;;9.50;4.95;;;;;;;21.30;57.56;101157.38;5014691;28;20109;-82
2023/07/22 10:18:07;;;;;;;8.00;4.72;;;;;;;22.06;57.53;101298.44;5015226;28;20029;-79
2023/07/22 10:20:39;;;;;;;8.55;4.30;;;;;;;22.25;58.49;101305.25;5045749;28;20079;-79
2023/07/22 10:23:14;;;;;;;8.27;4.05;;;;;;;22.76;56.57;101325.22;5014908;28;20037;-81
2023/07/22 10:25:39;;;;;;;7.78;3.67;;;;;;;22.79;55.27;101301.19;5015094;28;20049;-86
2023/07/22 10:28:06;;;;;;;7.80;3.80;;;;;;;23.15;53.89;101309.59;5014716;28;20030;-85
2023/07/22 10:30:31;;;;;;;5.63;3.05;;;;;;;23.63;54.49;101312.31;5014617;28;20026;-83
2023/07/22 10:32:57;;;;;;;8.60;3.85;;;;;;;24.04;53.10;101319.06;5014855;28;20025;-87
2023/07/22 10:35:32;;;;;;;8.80;3.30;;;;;;;24.36;52.45;101327.00;5014762;28;20057;-86
2023/07/22 10:38:09;;;;;;;6.93;3.72;;;;;;;24.14;51.17;101318.03;5014774;28;20112;-86
2023/07/22 10:40:49;;;;;;;7.32;3.35;;;;;;;23.51;52.94;101282.84;5014620;28;20084;-87
2023/07/22 10:43:23;;;;;;;7.28;3.63;;;;;;;23.75;53.92;101321.50;5014712;28;20180;-85
2023/07/22 10:45:51;;;;;;;5.53;3.40;;;;;;;23.57;52.89;101290.06;5014399;28;20084;-87
2023/07/22 10:48:17;;;;;;;7.82;3.28;;;;;;;23.65;51.67;101290.06;5014549;28;20026;-84
2023/07/22 10:50:46;;;;;;;5.93;3.05;;;;;;;23.93;50.38;101311.53;5014420;28;20030;-86
2023/07/22 10:53:14;;;;;;;6.57;2.97;;;;;;;24.01;51.84;101310.69;5014393;28;20057;-87
2023/07/22 10:56:13;;;;;;;6.75;3.25;;;;;;;24.04;51.19;101311.16;5014508;28;20040;-81
2023/07/22 10:58:45;;;;;;;8.68;3.55;;;;;;;23.87;51.59;101314.03;5014486;28;20030;-85
2023/07/22 11:01:28;;;;;;;8.38;3.17;;;;;;;23.90;52.30;101311.06;5014229;28;20036;-84
2023/07/22 11:04:15;;;;;;;4.85;2.85;;;;;;;24.02;51.27;101312.31;5014026;28;20088;-85
2023/07/22 11:06:43;;;;;;;6.22;2.75;;;;;;;24.11;50.32;101308.66;5014266;28;20040;-87
2023/07/22 11:09:36;;;;;;;6.88;2.60;;;;;;;24.10;49.44;101263.97;5013852;28;20034;-87
2023/07/22 11:12:06;;;;;;;5.05;2.47;;;;;;;24.07;49.32;101307.34;5014283;28;20022;-86
2023/07/22 11:14:34;;;;;;;6.30;2.53;;;;;;;23.94;49.25;101284.16;5014515;28;20022;-88